Time;durP1;ratioP1;P1;durP2;ratioP2;P2;SDS_P1;SDS_P2;PMS_P1;PMS_P2;Temp;Humidity;BMP_temperature;BMP_pressure;BME280_temperature;BME280_humidity;BME280_pressure;Samples;Min_cycle;Max_cycle;Signal;HPM_P1;HPM_P2
2020/12/14 00:03:27;;;;;;;25.68;11.60;;;;;;;0.99;100.00;99109.77;4503542;78;28557;-79
2020/12/14 00:09:31;;;;;;;29.15;14.18;;;;;;;0.95;100.00;99120.34;4474647;78;28545;-80
2020/12/14 00:15:33;;;;;;;29.55;13.55;;;;;;;0.97;100.00;99123.65;4504607;78;28616;-80
2020/12/14 00:21:35;;;;;;;30.60;14.35;;;;;;;1.02;100.00;99114.73;4492148;78;43395;-80
2020/12/14 00:27:38;;;;;;;29.35;13.68;;;;;;;0.92;100.00;99126.80;4478426;78;43383;-80
2020/12/14 00:33:40;;;;;;;25.12;11.08;;;;;;;0.77;100.00;99124.50;4497813;78;28619;-81
2020/12/14 00:39:42;;;;;;;24.65;11.08;;;;;;;0.89;100.00;99127.14;4498808;78;28571;-81
2020/12/14 00:45:44;;;;;;;28.73;11.80;;;;;;;0.82;100.00;99130.95;4495359;78;43474;-80
2020/12/14 00:51:47;;;;;;;21.68;10.13;;;;;;;1.00;100.00;99129.95;4487987;78;44454;-81
2020/12/14 00:57:49;;;;;;;21.25;11.05;;;;;;;1.04;100.00;99137.05;4494019;78;28632;-79
2020/12/14 01:03:51;;;;;;;23.67;10.93;;;;;;;0.93;100.00;99143.01;4494531;78;42934;-79
2020/12/14 01:09:53;;;;;;;23.32;10.88;;;;;;;0.79;100.00;99139.23;4494902;78;44487;-80
2020/12/14 01:15:55;;;;;;;22.25;9.00;;;;;;;0.87;100.00;99141.52;4496289;78;43939;-80
2020/12/14 01:21:57;;;;;;;24.37;10.95;;;;;;;0.85;100.00;99143.52;4497408;78;28574;-81
2020/12/14 01:28:00;;;;;;;24.15;11.28;;;;;;;0.89;100.00;99154.94;4507769;78;43557;-81
2020/12/14 01:34:02;;;;;;;21.68;9.83;;;;;;;0.85;100.00;99152.30;4492463;78;44173;-81
2020/12/14 01:40:04;;;;;;;23.65;10.53;;;;;;;0.99;100.00;99150.81;4477009;78;28576;-82
2020/12/14 01:46:07;;;;;;;21.73;11.15;;;;;;;0.81;100.00;99139.88;4509025;78;44436;-81
2020/12/14 01:52:09;;;;;;;17.40;8.50;;;;;;;0.80;100.00;99142.20;4484455;78;28576;-84
2020/12/14 01:58:11;;;;;;;16.73;8.75;;;;;;;0.89;100.00;99141.70;4379705;80;28557;-82
2020/12/14 02:04:13;;;;;;;18.15;9.83;;;;;;;0.87;100.00;99152.11;4375372;80;28589;-81
2020/12/14 02:10:16;;;;;;;23.62;11.48;;;;;;;0.74;100.00;99152.11;4372269;80;28552;-81
2020/12/14 02:16:18;;;;;;;22.27;10.32;;;;;;;0.93;100.00;99150.95;4301353;81;44452;-83
2020/12/14 02:22:23;;;;;;;21.70;9.95;;;;;;;0.65;100.00;99161.88;4306237;81;44479;-82
2020/12/14 02:28:25;;;;;;;21.02;9.55;;;;;;;0.88;100.00;99152.44;4348207;80;43931;-78
2020/12/14 02:34:27;;;;;;;16.73;8.25;;;;;;;0.65;100.00;99150.45;4328596;81;43909;-78
2020/12/14 02:40:29;;;;;;;20.80;8.88;;;;;;;0.68;100.00;99144.34;4351008;81;43962;-79
2020/12/14 02:46:31;;;;;;;21.20;10.63;;;;;;;0.71;100.00;99160.88;4346345;81;44428;-83
2020/12/14 02:52:36;;;;;;;18.27;9.00;;;;;;;0.92;100.00;99157.76;4338729;82;28598;-83
2020/12/14 02:58:38;;;;;;;20.80;9.18;;;;;;;0.70;100.00;99171.97;4343805;81;43935;-82
2020/12/14 03:04:42;;;;;;;18.65;9.55;;;;;;;0.79;100.00;99163.05;4321277;81;43970;-81
2020/12/14 03:10:44;;;;;;;19.75;10.50;;;;;;;0.75;100.00;99169.64;4337939;81;28548;-82
2020/12/14 03:16:51;;;;;;;21.95;10.18;;;;;;;0.86;100.00;99176.94;4351679;80;44420;-84
2020/12/14 03:22:54;;;;;;;18.62;8.98;;;;;;;0.91;100.00;99175.96;4326872;82;43909;-81
2020/12/14 03:28:58;;;;;;;20.65;11.22;;;;;;;1.05;100.00;99176.61;4329248;82;28733;-81
2020/12/14 03:35:00;;;;;;;23.22;11.03;;;;;;;0.85;100.00;99181.42;4339532;81;28610;-81
2020/12/14 03:41:07;;;;;;;23.77;11.08;;;;;;;1.04;100.00;99190.00;4316047;81;28567;-81
2020/12/14 03:47:09;;;;;;;21.17;9.90;;;;;;;1.07;100.00;99202.42;4356800;80;28578;-82
2020/12/14 03:53:13;;;;;;;21.00;9.90;;;;;;;1.00;100.00;99205.42;4325670;80;28589;-81
2020/12/14 03:59:15;;;;;;;20.02;10.60;;;;;;;0.97;100.00;99208.37;4334876;82;28573;-82
2020/12/14 04:05:17;;;;;;;21.35;10.48;;;;;;;0.89;100.00;99205.75;4352187;81;28619;-80
2020/12/14 04:11:21;;;;;;;22.77;10.95;;;;;;;1.06;100.00;99198.13;4327651;80;28594;-82
2020/12/14 04:17:23;;;;;;;20.43;10.20;;;;;;;0.99;100.00;99212.20;4345785;80;28668;-81
2020/12/14 04:23:25;;;;;;;23.22;10.72;;;;;;;0.99;100.00;99219.66;4359471;80;28567;-81
2020/12/14 04:29:28;;;;;;;29.57;13.55;;;;;;;0.88;100.00;99219.47;4352819;80;28581;-81
2020/12/14 04:35:33;;;;;;;30.02;13.35;;;;;;;0.96;100.00;99222.13;4366260;80;28608;-82
2020/12/14 04:41:35;;;;;;;33.90;16.53;;;;;;;1.08;100.00;99233.72;4394583;80;28598;-81
2020/12/14 04:47:39;;;;;;;29.02;14.03;;;;;;;1.27;100.00;99251.61;4345090;80;28639;-81
2020/12/14 04:53:43;;;;;;;33.73;15.25;;;;;;;1.13;100.00;99259.71;4321504;81;28559;-81
2020/12/14 04:59:45;;;;;;;32.17;15.13;;;;;;;0.93;100.00;99268.77;4309829;81;28639;-82
2020/12/14 05:05:55;;;;;;;35.10;15.78;;;;;;;0.93;100.00;99271.41;4325419;81;28636;-81
2020/12/14 05:11:59;;;;;;;34.03;15.78;;;;;;;1.07;100.00;99272.60;4384651;80;28585;-83
2020/12/14 05:18:13;;;;;;;31.95;14.60;;;;;;;1.27;100.00;99287.38;4389717;80;28548;-82
2020/12/14 05:24:26;;;;;;;29.80;14.35;;;;;;;1.21;100.00;99302.91;4379533;80;28551;-82
2020/12/14 05:30:37;;;;;;;28.07;13.70;;;;;;;1.28;100.00;99296.98;4373891;80;43415;-82
2020/12/14 05:36:40;;;;;;;27.45;13.05;;;;;;;1.19;100.00;99305.39;4306743;81;28547;-82
2020/12/14 05:42:42;;;;;;;29.40;13.30;;;;;;;1.27;100.00;99304.08;4357481;80;28644;-85
2020/12/14 05:48:45;;;;;;;25.35;12.55;;;;;;;1.34;100.00;99301.12;4386497;80;28558;-80
2020/12/14 05:54:51;;;;;;;28.40;13.15;;;;;;;1.24;100.00;99308.39;4378715;80;28628;-81
2020/12/14 06:00:55;;;;;;;31.60;13.58;;;;;;;1.29;100.00;99310.55;4378778;80;28625;-82
2020/12/14 06:07:06;;;;;;;31.37;14.10;;;;;;;1.23;100.00;99312.84;4383916;80;28555;-83
2020/12/14 06:13:12;;;;;;;32.63;14.90;;;;;;;1.42;100.00;99312.72;4385236;80;28552;-83
2020/12/14 06:19:15;;;;;;;26.85;11.83;;;;;;;1.30;100.00;99334.72;4375910;80;28539;-82
2020/12/14 06:25:20;;;;;;;31.05;14.00;;;;;;;1.46;100.00;99339.20;4385078;80;28624;-82
2020/12/14 06:31:38;;;;;;;30.05;14.63;;;;;;;1.41;100.00;99357.41;4391438;80;28531;-83
2020/12/14 06:37:53;;;;;;;32.17;14.05;;;;;;;1.31;100.00;99369.48;4373333;80;28537;-83
2020/12/14 06:44:07;;;;;;;29.70;13.68;;;;;;;1.30;100.00;99373.97;4389715;80;28641;-84
2020/12/14 06:50:37;;;;;;;34.98;14.30;;;;;;;1.29;100.00;99372.29;4391406;80;28538;-83
2020/12/14 06:56:43;;;;;;;32.42;14.73;;;;;;;1.31;100.00;99380.93;4380525;80;28919;-81
2020/12/14 07:02:45;;;;;;;31.25;14.07;;;;;;;1.21;100.00;99381.05;4383915;80;44123;-82
2020/12/14 07:08:48;;;;;;;31.70;14.50;;;;;;;1.31;100.00;99372.98;4364213;80;28638;-80
2020/12/14 07:14:57;;;;;;;31.87;14.58;;;;;;;1.44;100.00;99373.00;4292548;81;28551;-88
2020/12/14 07:21:08;;;;;;;31.50;14.55;;;;;;;1.53;100.00;99368.86;4339957;81;44099;-80
2020/12/14 07:27:10;;;;;;;34.10;15.65;;;;;;;1.67;100.00;99371.36;4360476;81;28562;-80
2020/12/14 07:33:14;;;;;;;37.23;15.80;;;;;;;1.75;100.00;99379.80;4347665;81;28599;-81
2020/12/14 07:39:17;;;;;;;34.08;15.40;;;;;;;1.76;100.00;99384.11;4344651;80;28626;-88
2020/12/14 07:45:23;;;;;;;31.42;14.13;;;;;;;1.73;100.00;99375.68;4363519;80;28653;-85
2020/12/14 07:51:27;;;;;;;33.90;14.78;;;;;;;1.82;100.00;99385.27;4346575;81;28580;-84
2020/12/14 08:03:46;;;;;;;34.13;15.55;;;;;;;1.93;100.00;99386.29;4377977;79;86035;-80
2020/12/14 08:09:48;;;;;;;41.33;17.62;;;;;;;2.17;100.00;99393.89;4308694;80;28622;-82
2020/12/14 08:15:50;;;;;;;40.25;17.55;;;;;;;2.09;100.00;99401.84;4323446;80;28564;-83
2020/12/14 08:22:09;;;;;;;38.65;17.62;;;;;;;2.13;100.00;99399.18;4328311;81;28535;-83
2020/12/14 08:28:12;;;;;;;36.83;16.75;;;;;;;2.03;100.00;99407.81;4336708;81;28552;-81
2020/12/14 08:34:20;;;;;;;35.98;15.20;;;;;;;2.10;100.00;99419.42;4317278;80;28560;-81
2020/12/14 08:40:22;;;;;;;35.85;16.95;;;;;;;2.32;100.00;99415.75;4310198;80;28560;-81
2020/12/14 08:46:29;;;;;;;40.38;17.50;;;;;;;2.36;100.00;99413.92;4314491;81;28548;-80
2020/12/14 08:52:31;;;;;;;39.27;17.92;;;;;;;2.39;100.00;99412.77;4326706;81;28617;-81
2020/12/14 08:58:53;;;;;;;35.15;16.32;;;;;;;2.46;100.00;99404.95;4315226;81;28594;-82
2020/12/14 09:04:56;;;;;;;33.63;14.83;;;;;;;2.57;100.00;99403.78;4316017;80;28584;-83
2020/12/14 09:11:02;;;;;;;34.03;15.35;;;;;;;2.56;100.00;99398.95;4312565;80;28620;-82
2020/12/14 09:17:14;;;;;;;31.10;13.98;;;;;;;2.76;100.00;99405.20;4311298;80;28631;-83
2020/12/14 09:23:21;;;;;;;31.52;14.98;;;;;;;2.63;100.00;99401.27;4305169;80;28572;-83
2020/12/14 09:29:24;;;;;;;32.48;14.63;;;;;;;2.71;100.00;99386.28;4313450;81;28623;-85
2020/12/14 09:35:28;;;;;;;27.20;12.88;;;;;;;2.96;100.00;99392.86;4338852;82;28653;-84
2020/12/14 09:41:33;;;;;;;28.17;13.85;;;;;;;3.09;100.00;99385.66;4311157;81;28557;-84
2020/12/14 09:47:48;;;;;;;30.95;14.33;;;;;;;3.04;100.00;99386.18;4486220;76;70816;-87
2020/12/14 09:53:52;;;;;;;32.53;15.00;;;;;;;3.13;100.00;99378.50;4420943;78;28600;-84
2020/12/14 09:59:54;;;;;;;27.95;13.25;;;;;;;3.19;100.00;99381.77;4429505;79;28549;-87
2020/12/14 10:05:58;;;;;;;26.65;12.05;;;;;;;3.28;100.00;99373.27;4444565;79;28613;-89
2020/12/14 10:12:01;;;;;;;28.52;12.73;;;;;;;3.56;100.00;99359.97;4412942;79;28569;-87
2020/12/14 10:18:05;;;;;;;23.05;11.05;;;;;;;3.54;100.00;99371.25;4418927;79;28553;-81
2020/12/14 10:24:07;;;;;;;16.55;9.38;;;;;;;3.45;100.00;99375.81;4428270;79;28594;-82
2020/12/14 10:30:10;;;;;;;19.48;9.93;;;;;;;3.40;100.00;99373.67;4428543;79;28551;-82
2020/12/14 10:36:12;;;;;;;23.05;11.83;;;;;;;3.53;100.00;99369.11;4426885;79;28572;-79
2020/12/14 10:42:16;;;;;;;24.70;11.38;;;;;;;3.51;100.00;99360.49;4288023;81;28626;-79
2020/12/14 10:48:20;;;;;;;21.40;11.00;;;;;;;3.75;100.00;99369.28;4299191;81;28617;-79
2020/12/14 10:54:22;;;;;;;20.95;10.93;;;;;;;3.64;100.00;99366.53;4313305;81;28588;-81
2020/12/14 11:00:24;;;;;;;19.75;9.93;;;;;;;3.69;100.00;99362.00;4295390;81;28957;-83
2020/12/14 11:06:31;;;;;;;20.72;11.03;;;;;;;3.79;100.00;99373.75;4295123;81;28637;-80
2020/12/14 11:12:33;;;;;;;23.65;10.90;;;;;;;3.72;100.00;99371.79;4276240;81;28544;-78
2020/12/14 11:18:36;;;;;;;22.37;11.00;;;;;;;3.55;100.00;99367.10;4265296;81;28642;-82
2020/12/14 11:24:40;;;;;;;19.05;9.93;;;;;;;3.67;100.00;99363.53;4276982;81;28562;-79
2020/12/14 11:30:44;;;;;;;19.87;10.00;;;;;;;3.87;100.00;99353.22;4307724;80;28540;-86
2020/12/14 11:36:47;;;;;;;18.90;10.00;;;;;;;3.96;100.00;99342.02;4268404;81;28608;-89
2020/12/14 11:42:50;;;;;;;19.52;9.10;;;;;;;3.92;100.00;99342.04;4312371;81;28589;-90
2020/12/14 11:48:53;;;;;;;19.30;10.13;;;;;;;3.80;100.00;99352.80;4340108;81;28664;-84
2020/12/14 11:54:55;;;;;;;22.32;10.63;;;;;;;3.87;100.00;99343.91;4331571;81;28535;-86
2020/12/14 12:00:57;;;;;;;20.90;10.40;;;;;;;3.76;100.00;99353.16;4340212;81;28631;-86
2020/12/14 12:07:05;;;;;;;18.57;9.25;;;;;;;3.58;100.00;99355.30;4320969;81;28572;-88
2020/12/14 12:13:07;;;;;;;15.48;7.92;;;;;;;3.74;100.00;99346.36;4321078;81;28543;-81
2020/12/14 12:19:10;;;;;;;20.60;8.98;;;;;;;3.93;100.00;99334.90;4314242;81;28692;-83
2020/12/14 12:25:12;;;;;;;17.35;8.55;;;;;;;3.91;100.00;99335.07;4343489;81;28624;-84
2020/12/14 12:31:14;;;;;;;13.13;7.12;;;;;;;3.95;100.00;99353.64;4342353;81;28545;-82
2020/12/14 12:37:17;;;;;;;13.08;6.65;;;;;;;3.81;100.00;99354.44;4314631;81;28578;-84
2020/12/14 12:43:19;;;;;;;12.58;6.97;;;;;;;3.73;100.00;99350.03;4327252;81;28603;-81
2020/12/14 12:49:22;;;;;;;15.55;8.30;;;;;;;3.91;100.00;99345.70;4321103;81;28553;-85
2020/12/14 12:55:24;;;;;;;15.90;8.20;;;;;;;3.63;100.00;99348.92;4319880;81;28582;-83
2020/12/14 13:01:26;;;;;;;14.23;7.47;;;;;;;3.66;100.00;99349.92;4304853;81;28567;-82
2020/12/14 13:07:31;;;;;;;16.17;8.15;;;;;;;3.72;100.00;99359.02;4310817;81;28557;-85
2020/12/14 13:13:33;;;;;;;16.52;7.83;;;;;;;3.61;100.00;99365.08;4316339;81;28553;-88
2020/12/14 13:19:37;;;;;;;17.23;7.65;;;;;;;3.56;100.00;99371.93;4310055;81;28628;-83
2020/12/14 13:25:39;;;;;;;17.00;8.55;;;;;;;3.42;100.00;99370.33;4316989;81;28544;-85
2020/12/14 13:31:41;;;;;;;16.80;8.88;;;;;;;3.40;100.00;99376.85;4303206;81;28547;-82
2020/12/14 13:37:50;;;;;;;18.23;9.10;;;;;;;3.33;100.00;99368.73;4300311;81;28629;-87
2020/12/14 13:43:54;;;;;;;14.18;6.83;;;;;;;3.19;100.00;99372.98;4293922;81;28575;-88
2020/12/14 13:49:59;;;;;;;15.50;7.72;;;;;;;3.18;100.00;99382.77;4336554;81;28559;-89
2020/12/14 13:56:03;;;;;;;18.27;9.28;;;;;;;3.13;100.00;99381.64;4312609;81;28569;-89
2020/12/14 14:02:10;;;;;;;15.88;8.60;;;;;;;3.08;100.00;99384.82;4295419;81;28621;-89
2020/12/14 14:08:20;;;;;;;14.28;8.35;;;;;;;2.91;100.00;99378.24;4186470;82;28554;-89
2020/12/14 14:14:25;;;;;;;18.42;9.18;;;;;;;2.73;100.00;99382.47;4239142;82;28568;-93
2020/12/14 14:20:28;;;;;;;17.17;9.00;;;;;;;2.89;100.00;99388.73;4239037;81;28620;-94
2020/12/14 14:26:31;;;;;;;18.57;9.58;;;;;;;2.79;100.00;99394.23;4255283;83;28623;-94
2020/12/14 14:32:33;;;;;;;13.90;7.85;;;;;;;2.73;100.00;99391.77;4309138;81;28548;-95
2020/12/14 14:38:35;;;;;;;15.90;7.85;;;;;;;2.75;100.00;99400.90;4253811;83;28542;-93
2020/12/14 14:44:38;;;;;;;16.00;8.60;;;;;;;2.79;100.00;99394.23;4218463;82;28633;-91
2020/12/14 14:50:40;;;;;;;19.30;9.10;;;;;;;2.76;100.00;99403.39;4303524;81;28556;-90
2020/12/14 14:56:43;;;;;;;17.95;9.03;;;;;;;2.58;100.00;99404.92;4301944;81;29088;-91
2020/12/14 15:02:46;;;;;;;16.23;8.15;;;;;;;2.57;100.00;99405.11;4311601;81;28530;-90
2020/12/14 15:08:48;;;;;;;16.73;8.65;;;;;;;2.46;100.00;99402.30;4305707;81;28617;-91
2020/12/14 15:14:50;;;;;;;16.73;8.65;;;;;;;2.57;100.00;99409.09;4308892;81;28556;-90
2020/12/14 15:20:57;;;;;;;19.00;9.93;;;;;;;2.49;100.00;99407.25;4298861;81;28567;-91
2020/12/14 15:26:59;;;;;;;17.90;8.95;;;;;;;2.37;100.00;99406.80;4278176;81;28582;-90
2020/12/14 15:33:02;;;;;;;14.83;7.90;;;;;;;2.48;100.00;99402.95;4301052;81;28600;-90
2020/12/14 15:39:11;;;;;;;13.70;6.75;;;;;;;2.28;100.00;99415.25;4279931;81;28611;-90
2020/12/14 15:46:18;;;;;;;12.80;6.72;;;;;;;2.46;100.00;99408.45;4142932;81;28582;-87
2020/12/14 15:52:52;;;;;;;13.62;6.92;;;;;;;2.60;100.00;99408.73;4119409;82;28610;-90
2020/12/14 15:58:55;;;;;;;13.75;6.90;;;;;;;2.60;100.00;99411.39;4314808;81;28648;-91
2020/12/14 16:04:59;;;;;;;13.30;6.62;;;;;;;2.41;100.00;99415.26;4312418;81;28546;-89
2020/12/14 16:11:02;;;;;;;17.50;9.35;;;;;;;2.38;100.00;99415.09;4343730;80;28578;-88
2020/12/14 16:17:06;;;;;;;26.57;12.40;;;;;;;2.40;100.00;99425.03;4318882;81;28559;-91
2020/12/14 16:23:09;;;;;;;26.17;13.98;;;;;;;2.29;100.00;99422.24;4326457;81;28595;-89
2020/12/14 16:29:12;;;;;;;25.05;13.10;;;;;;;2.52;100.00;99432.16;4327740;81;28600;-87
2020/12/14 16:35:16;;;;;;;21.75;12.13;;;;;;;2.33;100.00;99446.11;4314493;81;28655;-92
2020/12/14 16:41:22;;;;;;;23.00;11.33;;;;;;;2.25;100.00;99438.66;4327350;81;28545;-91
2020/12/14 16:47:25;;;;;;;23.52;11.40;;;;;;;2.21;100.00;99442.14;4228556;82;28664;-92
2020/12/14 16:53:28;;;;;;;23.50;11.43;;;;;;;2.33;100.00;99435.98;4290635;82;28582;-94
2020/12/14 16:59:31;;;;;;;20.52;10.30;;;;;;;2.18;100.00;99434.50;4235439;83;28598;-90
2020/12/14 17:05:34;;;;;;;23.38;11.50;;;;;;;2.05;100.00;99434.50;4296231;81;28671;-89
2020/12/14 17:11:39;;;;;;;21.55;11.38;;;;;;;2.06;100.00;99426.88;4288241;81;28582;-91
2020/12/14 17:17:51;;;;;;;28.60;11.57;;;;;;;2.09;100.00;99435.84;4472713;77;85473;-89
2020/12/14 17:23:55;;;;;;;23.65;12.25;;;;;;;1.97;100.00;99441.64;4313753;81;28573;-94
2020/12/14 17:29:58;;;;;;;25.60;12.85;;;;;;;1.76;100.00;99433.16;4311360;81;28558;-88
2020/12/14 17:36:00;;;;;;;27.95;13.50;;;;;;;1.58;100.00;99422.70;4285987;81;28610;-91
2020/12/14 17:42:05;;;;;;;29.35;13.90;;;;;;;1.65;100.00;99429.02;4249509;83;28552;-85
2020/12/14 17:48:07;;;;;;;26.80;13.68;;;;;;;1.81;100.00;99428.20;4312693;80;28554;-89
2020/12/14 17:54:13;;;;;;;33.02;15.83;;;;;;;1.90;100.00;99429.55;4291210;83;28595;-89
2020/12/14 18:00:15;;;;;;;33.08;16.77;;;;;;;1.92;100.00;99440.80;4236343;81;28570;-87
2020/12/14 18:06:18;;;;;;;31.57;15.50;;;;;;;1.78;100.00;99443.13;4236293;81;28603;-90
2020/12/14 18:12:21;;;;;;;36.40;15.88;;;;;;;1.69;100.00;99445.91;4236699;81;28720;-88
2020/12/14 18:18:23;;;;;;;30.20;14.40;;;;;;;1.63;100.00;99447.39;4250574;82;28577;-87
2020/12/14 18:24:26;;;;;;;33.70;16.67;;;;;;;1.70;100.00;99439.61;4228129;82;28610;-86
2020/12/14 18:30:28;;;;;;;36.00;18.05;;;;;;;1.77;100.00;99435.33;4233319;81;28577;-87
2020/12/14 21:24:29;;;;;;;55.48;23.80;;;;;;;0.36;100.00;99387.98;4309939;81;28597;-89
2020/12/14 21:30:36;;;;;;;57.15;24.67;;;;;;;0.48;100.00;99390.36;4317986;81;28585;-86
2020/12/14 21:36:41;;;;;;;57.53;24.52;;;;;;;0.44;100.00;99395.12;4307728;81;28577;-86
2020/12/14 21:42:45;;;;;;;70.03;28.60;;;;;;;0.38;100.00;99394.45;4247581;82;28596;-86
2020/12/14 21:48:50;;;;;;;58.80;25.35;;;;;;;0.35;100.00;99386.80;4230520;84;28981;-87
2020/12/14 21:54:58;;;;;;;63.90;26.20;;;;;;;0.30;100.00;99393.06;4253680;82;28580;-84
2020/12/14 22:01:01;;;;;;;55.25;23.83;;;;;;;0.39;100.00;99398.23;4236246;82;28596;-87
2020/12/14 22:07:04;;;;;;;58.52;25.85;;;;;;;0.66;100.00;99387.16;4314988;81;28601;-84
2020/12/14 22:13:08;;;;;;;67.17;28.52;;;;;;;0.54;100.00;99405.62;4313790;81;44133;-84
2020/12/14 22:19:12;;;;;;;63.23;26.00;;;;;;;0.43;100.00;99410.66;4238477;82;42940;-85
2020/12/14 22:25:15;;;;;;;60.58;25.82;;;;;;;0.19;100.00;99402.07;4301523;81;28566;-87
2020/12/14 22:31:19;;;;;;;66.42;26.10;;;;;;;0.23;100.00;99398.16;4320773;80;28588;-88
2020/12/14 22:37:24;;;;;;;58.05;24.65;;;;;;;0.49;100.00;99402.59;4246069;81;44105;-85
2020/12/14 22:43:27;;;;;;;;;;;;;;;0.43;100.00;99407.20;4228301;82;28560;-85
2020/12/14 22:49:30;;;;;;;71.80;26.27;;;;;;;0.42;100.00;99411.66;4310906;81;43825;-85
2020/12/14 22:55:32;;;;;;;68.65;27.52;;;;;;;0.36;100.00;99413.59;4293907;81;44085;-85
2020/12/14 23:01:35;;;;;;;65.12;25.82;;;;;;;0.13;100.00;99418.91;4301259;81;28554;-84
2020/12/14 23:07:41;;;;;;;57.50;23.22;;;;;;;0.21;100.00;99422.09;4251775;82;44130;-83
2020/12/14 23:13:46;;;;;;;62.00;25.75;;;;;;;0.15;100.00;99420.05;4223777;82;42874;-85
2020/12/14 23:19:48;;;;;;;63.52;26.68;;;;;;;0.24;100.00;99429.72;4386765;80;43258;-83
2020/12/14 23:25:51;;;;;;;61.58;23.38;;;;;;;0.23;100.00;99430.70;4252600;82;43645;-83
2020/12/14 23:31:54;;;;;;;61.35;23.90;;;;;;;0.34;100.00;99421.70;4358332;80;28552;-84
2020/12/14 23:37:56;;;;;;;56.50;22.25;;;;;;;0.36;100.00;99419.72;4240619;82;44143;-82
2020/12/14 23:44:00;;;;;;;69.58;25.65;;;;;;;0.37;100.00;99423.21;4336128;81;28569;-82
2020/12/14 23:50:03;;;;;;;70.20;25.92;;;;;;;0.20;100.00;99423.56;4416230;80;43582;-83
2020/12/14 23:56:05;;;;;;;61.85;24.15;;;;;;;0.30;100.00;99420.84;4409892;80;28578;-84
